sensor_id;sensor_type;location;lat;lon;timestamp;P1;durP1;ratioP1;P2;durP2;ratioP2
39322;SDS011;25036;53.638;10.134;2023-02-28T00:00:53;6.57;;;4.03;;
39322;SDS011;25036;53.638;10.134;2023-02-28T00:01:53;6.93;;;4.23;;
39322;SDS011;25036;53.638;10.134;2023-02-28T00:02:53;6.33;;;3.90;;
39322;SDS011;25036;53.638;10.134;2023-02-28T00:03:54;7.77;;;4.47;;
39322;SDS011;25036;53.638;10.134;2023-02-28T00:04:54;6.73;;;3.83;;
39322;SDS011;25036;53.638;10.134;2023-02-28T00:06:04;8.15;;;4.18;;
39322;SDS011;25036;53.638;10.134;2023-02-28T00:07:04;7.18;;;4.13;;
39322;SDS011;25036;53.638;10.134;2023-02-28T00:08:04;7.07;;;3.80;;
39322;SDS011;25036;53.638;10.134;2023-02-28T00:09:04;9.43;;;4.07;;
39322;SDS011;25036;53.638;10.134;2023-02-28T00:10:05;10.17;;;4.43;;
39322;SDS011;25036;53.638;10.134;2023-02-28T00:11:08;7.15;;;4.55;;
39322;SDS011;25036;53.638;10.134;2023-02-28T00:12:08;8.52;;;3.97;;
39322;SDS011;25036;53.638;10.134;2023-02-28T00:13:10;6.85;;;4.30;;
39322;SDS011;25036;53.638;10.134;2023-02-28T00:14:10;6.80;;;3.50;;
39322;SDS011;25036;53.638;10.134;2023-02-28T00:15:11;6.73;;;3.93;;
39322;SDS011;25036;53.638;10.134;2023-02-28T00:16:12;7.05;;;4.22;;
39322;SDS011;25036;53.638;10.134;2023-02-28T00:17:13;6.03;;;3.55;;
39322;SDS011;25036;53.638;10.134;2023-02-28T00:18:13;6.50;;;3.80;;
39322;SDS011;25036;53.638;10.134;2023-02-28T00:19:13;6.30;;;3.97;;
39322;SDS011;25036;53.638;10.134;2023-02-28T00:20:13;5.73;;;3.93;;
39322;SDS011;25036;53.638;10.134;2023-02-28T00:21:13;7.68;;;3.83;;
39322;SDS011;25036;53.638;10.134;2023-02-28T00:22:14;5.90;;;3.88;;
39322;SDS011;25036;53.638;10.134;2023-02-28T00:23:14;5.35;;;3.85;;
39322;SDS011;25036;53.638;10.134;2023-02-28T00:24:14;7.00;;;4.20;;
39322;SDS011;25036;53.638;10.134;2023-02-28T00:25:18;7.03;;;3.80;;
39322;SDS011;25036;53.638;10.134;2023-02-28T00:26:19;7.13;;;4.00;;
39322;SDS011;25036;53.638;10.134;2023-02-28T00:27:19;8.60;;;3.90;;
39322;SDS011;25036;53.638;10.134;2023-02-28T00:28:19;6.28;;;3.95;;
39322;SDS011;25036;53.638;10.134;2023-02-28T00:29:19;6.63;;;4.25;;
39322;SDS011;25036;53.638;10.134;2023-02-28T00:30:21;6.47;;;4.37;;
39322;SDS011;25036;53.638;10.134;2023-02-28T00:31:21;5.20;;;3.90;;
39322;SDS011;25036;53.638;10.134;2023-02-28T00:32:21;6.60;;;4.22;;
39322;SDS011;25036;53.638;10.134;2023-02-28T00:33:22;7.20;;;4.53;;
39322;SDS011;25036;53.638;10.134;2023-02-28T00:34:22;7.00;;;4.03;;
39322;SDS011;25036;53.638;10.134;2023-02-28T00:35:22;5.90;;;3.60;;
39322;SDS011;25036;53.638;10.134;2023-02-28T00:36:22;8.50;;;4.50;;
39322;SDS011;25036;53.638;10.134;2023-02-28T00:37:22;5.33;;;3.60;;
39322;SDS011;25036;53.638;10.134;2023-02-28T00:38:22;7.15;;;3.97;;
39322;SDS011;25036;53.638;10.134;2023-02-28T00:39:22;5.70;;;4.10;;
39322;SDS011;25036;53.638;10.134;2023-02-28T00:40:23;6.87;;;4.10;;
39322;SDS011;25036;53.638;10.134;2023-02-28T00:41:23;6.60;;;4.03;;
39322;SDS011;25036;53.638;10.134;2023-02-28T00:42:23;5.57;;;3.80;;
39322;SDS011;25036;53.638;10.134;2023-02-28T00:43:24;5.15;;;3.78;;
39322;SDS011;25036;53.638;10.134;2023-02-28T00:44:24;5.70;;;4.10;;
39322;SDS011;25036;53.638;10.134;2023-02-28T00:45:24;6.17;;;3.97;;
39322;SDS011;25036;53.638;10.134;2023-02-28T00:46:24;6.88;;;3.67;;
39322;SDS011;25036;53.638;10.134;2023-02-28T00:47:25;5.77;;;4.27;;
39322;SDS011;25036;53.638;10.134;2023-02-28T00:48:25;6.65;;;4.25;;
39322;SDS011;25036;53.638;10.134;2023-02-28T00:49:25;6.40;;;4.18;;
39322;SDS011;25036;53.638;10.134;2023-02-28T00:50:26;5.32;;;3.72;;
39322;SDS011;25036;53.638;10.134;2023-02-28T00:51:26;5.10;;;3.80;;
39322;SDS011;25036;53.638;10.134;2023-02-28T00:52:26;5.80;;;3.72;;
39322;SDS011;25036;53.638;10.134;2023-02-28T00:53:26;7.10;;;3.80;;
39322;SDS011;25036;53.638;10.134;2023-02-28T00:54:27;6.95;;;4.32;;
39322;SDS011;25036;53.638;10.134;2023-02-28T00:55:27;6.10;;;4.05;;
39322;SDS011;25036;53.638;10.134;2023-02-28T00:56:27;5.23;;;3.70;;
39322;SDS011;25036;53.638;10.134;2023-02-28T00:57:27;5.78;;;3.50;;
39322;SDS011;25036;53.638;10.134;2023-02-28T00:58:28;7.30;;;4.53;;
39322;SDS011;25036;53.638;10.134;2023-02-28T00:59:28;5.75;;;3.70;;
39322;SDS011;25036;53.638;10.134;2023-02-28T01:00:28;5.67;;;3.60;;
39322;SDS011;25036;53.638;10.134;2023-02-28T01:01:28;6.67;;;3.43;;
39322;SDS011;25036;53.638;10.134;2023-02-28T01:02:28;5.63;;;3.63;;
39322;SDS011;25036;53.638;10.134;2023-02-28T01:03:28;7.57;;;3.90;;
39322;SDS011;25036;53.638;10.134;2023-02-28T01:04:29;6.18;;;3.70;;
39322;SDS011;25036;53.638;10.134;2023-02-28T01:05:29;4.37;;;3.40;;
39322;SDS011;25036;53.638;10.134;2023-02-28T01:06:29;5.33;;;3.23;;
39322;SDS011;25036;53.638;10.134;2023-02-28T01:07:29;5.73;;;3.70;;
39322;SDS011;25036;53.638;10.134;2023-02-28T01:08:29;5.83;;;3.30;;
39322;SDS011;25036;53.638;10.134;2023-02-28T01:09:29;5.05;;;3.50;;
39322;SDS011;25036;53.638;10.134;2023-02-28T01:10:30;6.78;;;3.47;;
39322;SDS011;25036;53.638;10.134;2023-02-28T01:11:31;4.90;;;3.40;;
39322;SDS011;25036;53.638;10.134;2023-02-28T01:12:32;4.45;;;3.20;;
39322;SDS011;25036;53.638;10.134;2023-02-28T01:13:33;5.90;;;3.00;;
39322;SDS011;25036;53.638;10.134;2023-02-28T01:14:33;4.27;;;3.23;;
39322;SDS011;25036;53.638;10.134;2023-02-28T01:15:34;6.85;;;3.35;;
39322;SDS011;25036;53.638;10.134;2023-02-28T01:16:34;4.72;;;2.85;;
39322;SDS011;25036;53.638;10.134;2023-02-28T01:17:35;4.77;;;3.13;;
39322;SDS011;25036;53.638;10.134;2023-02-28T01:18:35;5.25;;;3.00;;
39322;SDS011;25036;53.638;10.134;2023-02-28T01:19:36;7.40;;;3.75;;
39322;SDS011;25036;53.638;10.134;2023-02-28T01:20:36;5.80;;;2.97;;
39322;SDS011;25036;53.638;10.134;2023-02-28T01:21:37;4.50;;;3.33;;
39322;SDS011;25036;53.638;10.134;2023-02-28T01:22:37;5.30;;;3.20;;
39322;SDS011;25036;53.638;10.134;2023-02-28T01:23:37;4.43;;;2.90;;
39322;SDS011;25036;53.638;10.134;2023-02-28T01:24:38;4.55;;;3.40;;
39322;SDS011;25036;53.638;10.134;2023-02-28T01:25:38;5.90;;;3.13;;
39322;SDS011;25036;53.638;10.134;2023-02-28T01:26:38;5.57;;;3.70;;
39322;SDS011;25036;53.638;10.134;2023-02-28T01:27:38;6.03;;;3.50;;
39322;SDS011;25036;53.638;10.134;2023-02-28T01:28:39;4.30;;;3.00;;
39322;SDS011;25036;53.638;10.134;2023-02-28T01:29:40;6.72;;;3.80;;
39322;SDS011;25036;53.638;10.134;2023-02-28T01:30:40;6.25;;;3.40;;
39322;SDS011;25036;53.638;10.134;2023-02-28T01:31:40;4.43;;;2.73;;
39322;SDS011;25036;53.638;10.134;2023-02-28T01:32:40;4.90;;;3.13;;
39322;SDS011;25036;53.638;10.134;2023-02-28T01:33:40;4.50;;;3.47;;
39322;SDS011;25036;53.638;10.134;2023-02-28T01:34:40;5.60;;;3.57;;
39322;SDS011;25036;53.638;10.134;2023-02-28T01:35:40;6.57;;;3.78;;
39322;SDS011;25036;53.638;10.134;2023-02-28T01:36:41;6.00;;;3.20;;
39322;SDS011;25036;53.638;10.134;2023-02-28T01:37:41;5.87;;;3.50;;
39322;SDS011;25036;53.638;10.134;2023-02-28T01:38:41;6.17;;;3.50;;
39322;SDS011;25036;53.638;10.134;2023-02-28T01:39:42;6.10;;;3.35;;
39322;SDS011;25036;53.638;10.134;2023-02-28T01:40:42;4.23;;;3.30;;
39322;SDS011;25036;53.638;10.134;2023-02-28T01:41:42;4.50;;;3.17;;
39322;SDS011;25036;53.638;10.134;2023-02-28T01:42:43;6.82;;;3.30;;
39322;SDS011;25036;53.638;10.134;2023-02-28T01:44:58;5.93;;;3.50;;
39322;SDS011;25036;53.638;10.134;2023-02-28T01:45:59;5.75;;;3.85;;
39322;SDS011;25036;53.638;10.134;2023-02-28T01:46:59;5.43;;;3.43;;
39322;SDS011;25036;53.638;10.134;2023-02-28T01:48:03;8.13;;;3.87;;
39322;SDS011;25036;53.638;10.134;2023-02-28T01:49:11;5.00;;;3.53;;
39322;SDS011;25036;53.638;10.134;2023-02-28T01:50:15;6.95;;;3.78;;
39322;SDS011;25036;53.638;10.134;2023-02-28T01:51:20;5.60;;;3.50;;
39322;SDS011;25036;53.638;10.134;2023-02-28T01:52:21;5.55;;;3.63;;
39322;SDS011;25036;53.638;10.134;2023-02-28T01:53:24;5.20;;;3.30;;
39322;SDS011;25036;53.638;10.134;2023-02-28T01:54:27;6.32;;;3.25;;
39322;SDS011;25036;53.638;10.134;2023-02-28T01:55:29;5.28;;;3.20;;
39322;SDS011;25036;53.638;10.134;2023-02-28T01:56:30;6.38;;;3.13;;
39322;SDS011;25036;53.638;10.134;2023-02-28T01:57:43;5.13;;;3.58;;
39322;SDS011;25036;53.638;10.134;2023-02-28T01:58:49;5.57;;;3.63;;
39322;SDS011;25036;53.638;10.134;2023-02-28T01:59:51;5.40;;;3.15;;
39322;SDS011;25036;53.638;10.134;2023-02-28T02:00:52;5.63;;;3.42;;
39322;SDS011;25036;53.638;10.134;2023-02-28T02:01:53;5.75;;;3.80;;
39322;SDS011;25036;53.638;10.134;2023-02-28T02:02:54;6.13;;;3.30;;
39322;SDS011;25036;53.638;10.134;2023-02-28T02:03:57;4.85;;;3.65;;
39322;SDS011;25036;53.638;10.134;2023-02-28T02:04:59;5.63;;;3.35;;
39322;SDS011;25036;53.638;10.134;2023-02-28T02:06:01;4.78;;;3.50;;
39322;SDS011;25036;53.638;10.134;2023-02-28T02:07:02;6.22;;;3.85;;
39322;SDS011;25036;53.638;10.134;2023-02-28T02:08:09;5.47;;;3.67;;
39322;SDS011;25036;53.638;10.134;2023-02-28T02:09:10;4.55;;;3.47;;
39322;SDS011;25036;53.638;10.134;2023-02-28T02:10:25;6.38;;;3.67;;
39322;SDS011;25036;53.638;10.134;2023-02-28T02:11:27;5.65;;;3.47;;
39322;SDS011;25036;53.638;10.134;2023-02-28T02:14:59;4.78;;;3.33;;
39322;SDS011;25036;53.638;10.134;2023-02-28T02:16:04;7.53;;;3.60;;
39322;SDS011;25036;53.638;10.134;2023-02-28T02:17:16;5.82;;;2.97;;
39322;SDS011;25036;53.638;10.134;2023-02-28T02:18:31;8.02;;;3.53;;
39322;SDS011;25036;53.638;10.134;2023-02-28T02:20:38;4.73;;;3.23;;
39322;SDS011;25036;53.638;10.134;2023-02-28T02:21:47;6.65;;;3.60;;
39322;SDS011;25036;53.638;10.134;2023-02-28T02:23:09;6.07;;;3.15;;
39322;SDS011;25036;53.638;10.134;2023-02-28T02:29:00;4.47;;;2.90;;
39322;SDS011;25036;53.638;10.134;2023-02-28T02:30:16;5.13;;;3.05;;
39322;SDS011;25036;53.638;10.134;2023-02-28T02:33:17;4.63;;;3.17;;
39322;SDS011;25036;53.638;10.134;2023-02-28T02:34:17;7.35;;;3.30;;
39322;SDS011;25036;53.638;10.134;2023-02-28T02:36:27;3.90;;;2.73;;
39322;SDS011;25036;53.638;10.134;2023-02-28T02:38:32;5.70;;;3.13;;
39322;SDS011;25036;53.638;10.134;2023-02-28T02:39:02;4.85;;;2.75;;
39322;SDS011;25036;53.638;10.134;2023-02-28T02:40:14;6.95;;;2.92;;
39322;SDS011;25036;53.638;10.134;2023-02-28T02:41:22;5.10;;;2.53;;
39322;SDS011;25036;53.638;10.134;2023-02-28T02:42:25;5.55;;;2.70;;
39322;SDS011;25036;53.638;10.134;2023-02-28T02:43:34;7.43;;;3.65;;
39322;SDS011;25036;53.638;10.134;2023-02-28T02:44:38;4.68;;;2.72;;
39322;SDS011;25036;53.638;10.134;2023-02-28T02:45:41;5.40;;;2.97;;
39322;SDS011;25036;53.638;10.134;2023-02-28T02:46:43;4.85;;;3.03;;
39322;SDS011;25036;53.638;10.134;2023-02-28T02:47:44;4.57;;;2.78;;
39322;SDS011;25036;53.638;10.134;2023-02-28T02:48:44;5.10;;;2.67;;
39322;SDS011;25036;53.638;10.134;2023-02-28T02:49:47;4.57;;;2.50;;
39322;SDS011;25036;53.638;10.134;2023-02-28T02:50:50;5.43;;;2.72;;
39322;SDS011;25036;53.638;10.134;2023-02-28T02:51:50;5.05;;;2.03;;
39322;SDS011;25036;53.638;10.134;2023-02-28T02:52:53;4.57;;;2.80;;
39322;SDS011;25036;53.638;10.134;2023-02-28T02:53:59;3.50;;;2.50;;
39322;SDS011;25036;53.638;10.134;2023-02-28T02:55:00;4.07;;;2.38;;
39322;SDS011;25036;53.638;10.134;2023-02-28T02:56:01;5.20;;;2.40;;
39322;SDS011;25036;53.638;10.134;2023-02-28T02:57:03;3.03;;;2.13;;
39322;SDS011;25036;53.638;10.134;2023-02-28T02:58:06;4.53;;;2.55;;
39322;SDS011;25036;53.638;10.134;2023-02-28T02:59:07;4.18;;;2.50;;
39322;SDS011;25036;53.638;10.134;2023-02-28T03:00:09;3.67;;;2.40;;
39322;SDS011;25036;53.638;10.134;2023-02-28T03:01:14;3.70;;;2.40;;
39322;SDS011;25036;53.638;10.134;2023-02-28T03:02:15;5.10;;;2.38;;
39322;SDS011;25036;53.638;10.134;2023-02-28T03:03:17;4.07;;;2.30;;
39322;SDS011;25036;53.638;10.134;2023-02-28T03:04:21;3.83;;;2.50;;
39322;SDS011;25036;53.638;10.134;2023-02-28T03:05:26;5.68;;;2.55;;
39322;SDS011;25036;53.638;10.134;2023-02-28T03:06:27;4.45;;;2.30;;
39322;SDS011;25036;53.638;10.134;2023-02-28T03:07:27;5.60;;;2.90;;
39322;SDS011;25036;53.638;10.134;2023-02-28T03:08:28;3.63;;;2.33;;
39322;SDS011;25036;53.638;10.134;2023-02-28T03:09:28;4.70;;;2.58;;
39322;SDS011;25036;53.638;10.134;2023-02-28T03:10:30;2.97;;;2.33;;
39322;SDS011;25036;53.638;10.134;2023-02-28T03:11:30;4.65;;;2.35;;
39322;SDS011;25036;53.638;10.134;2023-02-28T03:12:40;4.03;;;2.30;;
39322;SDS011;25036;53.638;10.134;2023-02-28T03:17:08;4.03;;;2.40;;
39322;SDS011;25036;53.638;10.134;2023-02-28T03:18:13;3.93;;;2.40;;
39322;SDS011;25036;53.638;10.134;2023-02-28T03:23:03;3.97;;;2.35;;
39322;SDS011;25036;53.638;10.134;2023-02-28T03:24:07;4.35;;;2.50;;
39322;SDS011;25036;53.638;10.134;2023-02-28T03:25:10;4.72;;;2.30;;
39322;SDS011;25036;53.638;10.134;2023-02-28T03:26:18;3.67;;;2.45;;
39322;SDS011;25036;53.638;10.134;2023-02-28T03:27:39;4.75;;;2.35;;
39322;SDS011;25036;53.638;10.134;2023-02-28T03:28:45;4.15;;;2.13;;
39322;SDS011;25036;53.638;10.134;2023-02-28T03:29:51;4.03;;;2.15;;
39322;SDS011;25036;53.638;10.134;2023-02-28T03:30:56;3.15;;;2.10;;
39322;SDS011;25036;53.638;10.134;2023-02-28T03:32:07;4.95;;;2.05;;
39322;SDS011;25036;53.638;10.134;2023-02-28T03:33:12;3.28;;;1.98;;
39322;SDS011;25036;53.638;10.134;2023-02-28T03:34:17;3.03;;;2.10;;
39322;SDS011;25036;53.638;10.134;2023-02-28T03:35:38;3.45;;;1.90;;
39322;SDS011;25036;53.638;10.134;2023-02-28T03:36:41;3.80;;;1.90;;
39322;SDS011;25036;53.638;10.134;2023-02-28T03:37:45;3.28;;;2.20;;
39322;SDS011;25036;53.638;10.134;2023-02-28T03:39:04;2.42;;;1.70;;
39322;SDS011;25036;53.638;10.134;2023-02-28T03:40:15;3.40;;;1.77;;
39322;SDS011;25036;53.638;10.134;2023-02-28T03:41:19;3.85;;;2.10;;
39322;SDS011;25036;53.638;10.134;2023-02-28T03:42:23;2.95;;;1.65;;
39322;SDS011;25036;53.638;10.134;2023-02-28T03:43:27;2.92;;;1.67;;
39322;SDS011;25036;53.638;10.134;2023-02-28T03:44:35;3.88;;;1.60;;
39322;SDS011;25036;53.638;10.134;2023-02-28T03:45:36;3.58;;;2.00;;
39322;SDS011;25036;53.638;10.134;2023-02-28T03:46:38;3.47;;;1.90;;
39322;SDS011;25036;53.638;10.134;2023-02-28T03:47:45;4.20;;;1.90;;
39322;SDS011;25036;53.638;10.134;2023-02-28T03:48:51;3.42;;;1.88;;
39322;SDS011;25036;53.638;10.134;2023-02-28T03:49:57;4.85;;;1.55;;
39322;SDS011;25036;53.638;10.134;2023-02-28T03:50:59;4.20;;;2.00;;
39322;SDS011;25036;53.638;10.134;2023-02-28T03:52:00;3.33;;;2.00;;
39322;SDS011;25036;53.638;10.134;2023-02-28T03:53:03;4.88;;;1.80;;
39322;SDS011;25036;53.638;10.134;2023-02-28T03:54:15;2.88;;;1.70;;
39322;SDS011;25036;53.638;10.134;2023-02-28T03:55:17;2.60;;;1.63;;
39322;SDS011;25036;53.638;10.134;2023-02-28T03:56:19;3.75;;;2.03;;
39322;SDS011;25036;53.638;10.134;2023-02-28T03:57:27;2.67;;;1.83;;
39322;SDS011;25036;53.638;10.134;2023-02-28T03:58:35;5.90;;;1.83;;
39322;SDS011;25036;53.638;10.134;2023-02-28T03:59:42;4.10;;;1.85;;
39322;SDS011;25036;53.638;10.134;2023-02-28T04:00:45;5.32;;;2.03;;
39322;SDS011;25036;53.638;10.134;2023-02-28T04:01:49;2.92;;;1.83;;
39322;SDS011;25036;53.638;10.134;2023-02-28T04:02:50;4.35;;;1.73;;
39322;SDS011;25036;53.638;10.134;2023-02-28T04:03:52;4.15;;;1.77;;
39322;SDS011;25036;53.638;10.134;2023-02-28T04:04:52;3.13;;;1.85;;
39322;SDS011;25036;53.638;10.134;2023-02-28T04:05:53;3.60;;;1.98;;
39322;SDS011;25036;53.638;10.134;2023-02-28T04:07:01;2.45;;;1.83;;
39322;SDS011;25036;53.638;10.134;2023-02-28T04:08:05;3.50;;;1.77;;
39322;SDS011;25036;53.638;10.134;2023-02-28T04:09:07;3.85;;;1.60;;
39322;SDS011;25036;53.638;10.134;2023-02-28T04:10:07;3.60;;;2.08;;
39322;SDS011;25036;53.638;10.134;2023-02-28T04:11:19;5.00;;;2.25;;
39322;SDS011;25036;53.638;10.134;2023-02-28T04:12:19;4.53;;;1.80;;
39322;SDS011;25036;53.638;10.134;2023-02-28T04:13:21;2.60;;;1.83;;
39322;SDS011;25036;53.638;10.134;2023-02-28T04:14:21;2.20;;;1.63;;
39322;SDS011;25036;53.638;10.134;2023-02-28T04:15:21;2.75;;;1.63;;
39322;SDS011;25036;53.638;10.134;2023-02-28T04:16:24;4.03;;;1.75;;
39322;SDS011;25036;53.638;10.134;2023-02-28T04:17:24;2.40;;;1.73;;
39322;SDS011;25036;53.638;10.134;2023-02-28T04:18:24;2.42;;;1.45;;
39322;SDS011;25036;53.638;10.134;2023-02-28T04:19:25;2.63;;;1.87;;
39322;SDS011;25036;53.638;10.134;2023-02-28T04:20:25;3.37;;;1.93;;
39322;SDS011;25036;53.638;10.134;2023-02-28T04:21:25;2.97;;;1.80;;
39322;SDS011;25036;53.638;10.134;2023-02-28T04:22:25;3.47;;;1.87;;
39322;SDS011;25036;53.638;10.134;2023-02-28T04:23:28;3.40;;;1.88;;
39322;SDS011;25036;53.638;10.134;2023-02-28T04:24:28;4.07;;;1.97;;
39322;SDS011;25036;53.638;10.134;2023-02-28T04:25:28;3.60;;;2.13;;
39322;SDS011;25036;53.638;10.134;2023-02-28T04:26:33;3.20;;;1.80;;
39322;SDS011;25036;53.638;10.134;2023-02-28T04:27:33;3.22;;;2.03;;
39322;SDS011;25036;53.638;10.134;2023-02-28T04:28:34;3.70;;;1.92;;
39322;SDS011;25036;53.638;10.134;2023-02-28T04:29:34;4.30;;;1.80;;
39322;SDS011;25036;53.638;10.134;2023-02-28T04:30:34;3.45;;;1.65;;
39322;SDS011;25036;53.638;10.134;2023-02-28T04:31:34;3.77;;;2.07;;
39322;SDS011;25036;53.638;10.134;2023-02-28T04:32:34;5.10;;;1.87;;
39322;SDS011;25036;53.638;10.134;2023-02-28T04:33:34;4.47;;;1.93;;
39322;SDS011;25036;53.638;10.134;2023-02-28T04:34:35;4.10;;;2.27;;
39322;SDS011;25036;53.638;10.134;2023-02-28T04:35:35;3.08;;;2.00;;
39322;SDS011;25036;53.638;10.134;2023-02-28T04:36:35;3.63;;;2.20;;
39322;SDS011;25036;53.638;10.134;2023-02-28T04:37:35;4.30;;;1.77;;
39322;SDS011;25036;53.638;10.134;2023-02-28T04:38:37;5.22;;;2.15;;
39322;SDS011;25036;53.638;10.134;2023-02-28T04:39:38;3.50;;;1.75;;
39322;SDS011;25036;53.638;10.134;2023-02-28T04:40:38;3.08;;;1.80;;
39322;SDS011;25036;53.638;10.134;2023-02-28T04:41:38;4.33;;;1.97;;
39322;SDS011;25036;53.638;10.134;2023-02-28T04:42:38;2.85;;;1.73;;
39322;SDS011;25036;53.638;10.134;2023-02-28T04:43:39;3.47;;;1.60;;
39322;SDS011;25036;53.638;10.134;2023-02-28T04:44:39;2.40;;;1.48;;
39322;SDS011;25036;53.638;10.134;2023-02-28T04:45:39;2.33;;;1.60;;
39322;SDS011;25036;53.638;10.134;2023-02-28T04:46:39;2.67;;;1.63;;
39322;SDS011;25036;53.638;10.134;2023-02-28T04:47:39;2.55;;;1.60;;
39322;SDS011;25036;53.638;10.134;2023-02-28T04:48:39;2.27;;;1.70;;
39322;SDS011;25036;53.638;10.134;2023-02-28T04:49:40;3.95;;;1.70;;
39322;SDS011;25036;53.638;10.134;2023-02-28T04:50:41;2.85;;;1.75;;
39322;SDS011;25036;53.638;10.134;2023-02-28T04:51:41;6.17;;;1.97;;
39322;SDS011;25036;53.638;10.134;2023-02-28T04:52:42;3.28;;;1.70;;
39322;SDS011;25036;53.638;10.134;2023-02-28T04:53:42;5.10;;;1.70;;
39322;SDS011;25036;53.638;10.134;2023-02-28T04:54:42;2.40;;;1.63;;
39322;SDS011;25036;53.638;10.134;2023-02-28T04:55:42;2.53;;;1.97;;
39322;SDS011;25036;53.638;10.134;2023-02-28T04:56:43;4.07;;;2.20;;
39322;SDS011;25036;53.638;10.134;2023-02-28T04:57:43;3.43;;;2.00;;
39322;SDS011;25036;53.638;10.134;2023-02-28T04:58:43;3.90;;;2.00;;
39322;SDS011;25036;53.638;10.134;2023-02-28T04:59:43;4.78;;;1.65;;
39322;SDS011;25036;53.638;10.134;2023-02-28T05:00:44;3.95;;;1.80;;
39322;SDS011;25036;53.638;10.134;2023-02-28T05:01:47;2.37;;;1.60;;
39322;SDS011;25036;53.638;10.134;2023-02-28T05:02:48;3.30;;;1.98;;
39322;SDS011;25036;53.638;10.134;2023-02-28T05:03:49;3.53;;;1.63;;
39322;SDS011;25036;53.638;10.134;2023-02-28T05:04:49;3.42;;;1.58;;
39322;SDS011;25036;53.638;10.134;2023-02-28T05:05:49;2.13;;;1.60;;
39322;SDS011;25036;53.638;10.134;2023-02-28T05:06:49;2.70;;;1.57;;
39322;SDS011;25036;53.638;10.134;2023-02-28T05:07:49;2.40;;;1.70;;
39322;SDS011;25036;53.638;10.134;2023-02-28T05:08:50;3.20;;;1.60;;
39322;SDS011;25036;53.638;10.134;2023-02-28T05:09:50;3.38;;;1.85;;
39322;SDS011;25036;53.638;10.134;2023-02-28T05:10:50;3.63;;;1.70;;
39322;SDS011;25036;53.638;10.134;2023-02-28T05:11:50;3.03;;;1.80;;
39322;SDS011;25036;53.638;10.134;2023-02-28T05:12:50;2.53;;;1.47;;
39322;SDS011;25036;53.638;10.134;2023-02-28T05:13:51;3.15;;;1.60;;
39322;SDS011;25036;53.638;10.134;2023-02-28T05:14:51;2.83;;;1.70;;
39322;SDS011;25036;53.638;10.134;2023-02-28T05:15:51;2.77;;;1.90;;
39322;SDS011;25036;53.638;10.134;2023-02-28T05:16:52;2.92;;;1.67;;
39322;SDS011;25036;53.638;10.134;2023-02-28T05:17:52;3.00;;;1.60;;
39322;SDS011;25036;53.638;10.134;2023-02-28T05:18:52;3.30;;;1.73;;
39322;SDS011;25036;53.638;10.134;2023-02-28T05:19:53;3.03;;;2.15;;
39322;SDS011;25036;53.638;10.134;2023-02-28T05:20:53;2.40;;;1.83;;
39322;SDS011;25036;53.638;10.134;2023-02-28T05:21:54;4.77;;;2.20;;
39322;SDS011;25036;53.638;10.134;2023-02-28T05:22:54;6.10;;;2.10;;
39322;SDS011;25036;53.638;10.134;2023-02-28T05:23:55;3.50;;;2.13;;
39322;SDS011;25036;53.638;10.134;2023-02-28T05:24:55;3.97;;;1.98;;
39322;SDS011;25036;53.638;10.134;2023-02-28T05:25:56;3.00;;;2.37;;
39322;SDS011;25036;53.638;10.134;2023-02-28T05:26:56;5.38;;;2.38;;
39322;SDS011;25036;53.638;10.134;2023-02-28T05:27:56;4.30;;;2.10;;
39322;SDS011;25036;53.638;10.134;2023-02-28T05:28:57;3.60;;;2.33;;
39322;SDS011;25036;53.638;10.134;2023-02-28T05:29:57;3.88;;;1.88;;
39322;SDS011;25036;53.638;10.134;2023-02-28T05:30:57;2.50;;;1.90;;
39322;SDS011;25036;53.638;10.134;2023-02-28T05:31:57;5.00;;;2.57;;
39322;SDS011;25036;53.638;10.134;2023-02-28T05:32:57;5.77;;;2.40;;
39322;SDS011;25036;53.638;10.134;2023-02-28T05:33:58;5.03;;;2.63;;
39322;SDS011;25036;53.638;10.134;2023-02-28T05:34:58;5.27;;;2.90;;
39322;SDS011;25036;53.638;10.134;2023-02-28T05:35:58;6.37;;;3.83;;
39322;SDS011;25036;53.638;10.134;2023-02-28T05:36:58;4.60;;;2.80;;
39322;SDS011;25036;53.638;10.134;2023-02-28T05:37:58;6.03;;;2.85;;
39322;SDS011;25036;53.638;10.134;2023-02-28T05:38:58;7.67;;;2.97;;
39322;SDS011;25036;53.638;10.134;2023-02-28T05:39:58;5.75;;;3.10;;
39322;SDS011;25036;53.638;10.134;2023-02-28T05:40:59;5.32;;;2.90;;
39322;SDS011;25036;53.638;10.134;2023-02-28T05:41:59;5.35;;;2.70;;
39322;SDS011;25036;53.638;10.134;2023-02-28T05:42:59;7.87;;;3.10;;
39322;SDS011;25036;53.638;10.134;2023-02-28T05:44:00;4.40;;;2.85;;
39322;SDS011;25036;53.638;10.134;2023-02-28T05:45:00;3.95;;;2.58;;
39322;SDS011;25036;53.638;10.134;2023-02-28T05:46:07;5.63;;;2.80;;
39322;SDS011;25036;53.638;10.134;2023-02-28T05:47:07;5.05;;;2.65;;
39322;SDS011;25036;53.638;10.134;2023-02-28T05:48:07;4.37;;;2.60;;
39322;SDS011;25036;53.638;10.134;2023-02-28T05:49:07;4.17;;;2.67;;
39322;SDS011;25036;53.638;10.134;2023-02-28T05:50:08;6.23;;;2.97;;
39322;SDS011;25036;53.638;10.134;2023-02-28T05:51:09;5.22;;;3.05;;
39322;SDS011;25036;53.638;10.134;2023-02-28T05:52:09;4.65;;;2.58;;
39322;SDS011;25036;53.638;10.134;2023-02-28T05:53:10;5.38;;;2.95;;
39322;SDS011;25036;53.638;10.134;2023-02-28T05:54:10;4.10;;;2.60;;
39322;SDS011;25036;53.638;10.134;2023-02-28T05:55:10;4.17;;;2.30;;
39322;SDS011;25036;53.638;10.134;2023-02-28T05:56:10;4.67;;;3.30;;
39322;SDS011;25036;53.638;10.134;2023-02-28T05:57:11;4.90;;;2.50;;
39322;SDS011;25036;53.638;10.134;2023-02-28T05:58:11;5.13;;;3.10;;
39322;SDS011;25036;53.638;10.134;2023-02-28T05:59:14;6.20;;;2.73;;
39322;SDS011;25036;53.638;10.134;2023-02-28T06:00:14;4.30;;;2.33;;
39322;SDS011;25036;53.638;10.134;2023-02-28T06:01:20;2.67;;;2.33;;
39322;SDS011;25036;53.638;10.134;2023-02-28T06:02:20;6.18;;;2.83;;
39322;SDS011;25036;53.638;10.134;2023-02-28T06:03:20;4.10;;;2.20;;
39322;SDS011;25036;53.638;10.134;2023-02-28T06:04:20;6.20;;;2.60;;
39322;SDS011;25036;53.638;10.134;2023-02-28T06:05:21;3.90;;;2.30;;
39322;SDS011;25036;53.638;10.134;2023-02-28T06:06:21;3.22;;;2.30;;
39322;SDS011;25036;53.638;10.134;2023-02-28T06:07:21;5.33;;;2.90;;
39322;SDS011;25036;53.638;10.134;2023-02-28T06:08:22;4.32;;;2.55;;
39322;SDS011;25036;53.638;10.134;2023-02-28T06:09:22;5.03;;;2.80;;
39322;SDS011;25036;53.638;10.134;2023-02-28T06:10:22;4.00;;;2.92;;
39322;SDS011;25036;53.638;10.134;2023-02-28T06:11:23;4.57;;;2.53;;
39322;SDS011;25036;53.638;10.134;2023-02-28T06:12:26;5.13;;;2.80;;
39322;SDS011;25036;53.638;10.134;2023-02-28T06:13:26;5.53;;;2.43;;
39322;SDS011;25036;53.638;10.134;2023-02-28T06:14:27;5.63;;;2.97;;
39322;SDS011;25036;53.638;10.134;2023-02-28T06:15:27;5.95;;;2.70;;
39322;SDS011;25036;53.638;10.134;2023-02-28T06:16:27;4.17;;;2.90;;
39322;SDS011;25036;53.638;10.134;2023-02-28T06:17:27;6.60;;;2.53;;
39322;SDS011;25036;53.638;10.134;2023-02-28T06:18:28;3.67;;;2.20;;
39322;SDS011;25036;53.638;10.134;2023-02-28T06:19:28;4.33;;;2.53;;
39322;SDS011;25036;53.638;10.134;2023-02-28T06:20:29;2.78;;;2.22;;
39322;SDS011;25036;53.638;10.134;2023-02-28T06:21:30;4.82;;;2.10;;
39322;SDS011;25036;53.638;10.134;2023-02-28T06:22:30;2.22;;;1.80;;
39322;SDS011;25036;53.638;10.134;2023-02-28T06:23:31;3.92;;;2.30;;
39322;SDS011;25036;53.638;10.134;2023-02-28T06:24:31;6.87;;;2.23;;
39322;SDS011;25036;53.638;10.134;2023-02-28T06:25:32;4.80;;;2.45;;
39322;SDS011;25036;53.638;10.134;2023-02-28T06:26:32;5.67;;;2.70;;
39322;SDS011;25036;53.638;10.134;2023-02-28T06:27:33;5.57;;;3.27;;